Time;durP1;ratioP1;P1;durP2;ratioP2;P2;SDS_P1;SDS_P2;PMS_P1;PMS_P2;Temp;Humidity;BMP_temperature;BMP_pressure;BME280_temperature;BME280_humidity;BME280_pressure;Samples;Min_cycle;Max_cycle;Signal;HPM_P1;HPM_P2
2021/12/27 12:52:27;;;;;;;23.95;14.87;;;;;;;13.27;32.45;100086.78;2445914;79;30852;-83
2021/12/27 12:56:24;;;;;;;37.75;16.12;;;;;;;13.90;32.29;100105.99;2360007;80;25631;-83
2021/12/27 13:00:04;;;;;;;33.65;16.73;;;;;;;13.59;31.59;100104.03;2372436;81;25861;-81
2021/12/27 13:03:55;;;;;;;31.23;17.07;;;;;;;12.91;31.39;100111.72;2277824;84;25779;-84
2021/12/27 13:07:39;;;;;;;27.15;16.55;;;;;;;12.22;30.77;100098.77;2231673;86;25315;-82
2021/12/27 13:11:11;;;;;;;20.48;11.88;;;;;;;11.83;30.67;100111.70;2236907;87;25884;-89
2021/12/27 13:15:01;;;;;;;;;;;;;;;;;;;;;
2021/12/27 13:19:23;;;;;;;23.85;14.20;;;;;;;11.94;34.47;100106.66;2233599;86;25904;-80
2021/12/27 13:23:11;;;;;;;;;;;;;;;;;;;;;
2021/12/27 13:26:30;;;;;;;31.73;15.35;;;;;;;11.04;33.42;100084.39;2235694;86;25861;-86
2021/12/27 13:30:21;;;;;;;25.88;14.78;;;;;;;10.63;33.12;100085.41;2236448;87;26666;-86
2021/12/27 13:34:16;;;;;;;28.55;15.13;;;;;;;10.27;33.37;100086.00;2239570;86;25837;-85
2021/12/27 13:38:26;;;;;;;30.00;16.07;;;;;;;10.02;33.23;100089.35;2227992;86;25800;-85
2021/12/27 13:42:21;;;;;;;;;;;;;;;;;;;;;
2021/12/27 13:46:23;;;;;;;27.00;14.68;;;;;;;9.45;32.61;100089.42;2131262;88;25835;-83
2021/12/27 13:49:58;;;;;;;28.98;14.83;;;;;;;9.33;32.40;100089.13;2051572;92;25953;-85
2021/12/27 13:53:47;;;;;;;30.20;16.17;;;;;;;9.21;32.06;100100.12;2103870;92;26591;-84
2021/12/27 13:57:37;;;;;;;31.30;15.72;;;;;;;9.07;32.01;100106.68;2098870;91;26668;-86
2021/12/27 14:01:21;;;;;;;23.77;15.85;;;;;;;8.86;31.73;100104.42;2073346;92;25869;-82
2021/12/27 14:05:18;;;;;;;31.10;15.65;;;;;;;8.60;31.66;100102.42;2150559;89;25688;-86
2021/12/27 14:09:27;;;;;;;28.02;15.40;;;;;;;8.33;31.62;100094.72;2127522;89;25919;-86
2021/12/27 14:13:29;;;;;;;28.23;14.98;;;;;;;8.04;31.63;100092.61;2076358;92;25667;-83
2021/12/27 14:17:12;;;;;;;29.52;15.40;;;;;;;7.77;31.70;100076.69;1985217;97;25927;-83
2021/12/27 14:21:10;;;;;;;32.13;16.10;;;;;;;7.50;31.61;100079.32;1952396;99;25721;-86
2021/12/27 14:24:58;;;;;;;31.82;16.45;;;;;;;7.23;31.53;100087.11;2057978;94;25870;-83
2021/12/27 14:28:33;;;;;;;28.07;16.82;;;;;;;6.85;31.60;100079.34;1990734;97;25722;-82
2021/12/27 14:32:12;;;;;;;28.65;15.38;;;;;;;6.52;31.64;100081.70;1989243;96;26237;-84
2021/12/27 14:35:52;;;;;;;34.25;17.75;;;;;;;6.28;31.73;100077.83;1931181;98;25959;-87
2021/12/27 14:39:32;;;;;;;28.40;14.63;;;;;;;6.06;31.84;100084.79;1957698;98;25381;-84
2021/12/27 14:46:55;;;;;;;26.95;14.90;;;;;;;5.61;32.04;100071.00;1991835;97;25739;-83
2021/12/27 14:50:40;;;;;;;32.67;14.53;;;;;;;5.42;32.22;100087.48;2026107;96;25821;-83
2021/12/27 14:54:09;;;;;;;26.65;14.50;;;;;;;5.24;32.32;100081.19;2003198;96;25902;-83
2021/12/27 14:57:52;;;;;;;27.42;15.03;;;;;;;5.07;32.43;100078.34;1932896;96;26066;-84
2021/12/27 15:01:27;;;;;;;25.23;13.18;;;;;;;4.90;32.55;100077.64;2100034;91;25693;-84
2021/12/27 15:05:06;;;;;;;23.10;13.28;;;;;;;4.74;32.67;100076.11;2177685;89;25890;-84
2021/12/27 15:08:52;;;;;;;24.07;14.23;;;;;;;4.62;32.74;100080.75;2123304;92;25794;-84
2021/12/27 15:12:42;;;;;;;;;;;;;;;;;;;;;
2021/12/27 15:20:12;;;;;;;19.27;12.40;;;;;;;4.21;33.14;100078.55;2167798;89;25751;-84
2021/12/27 15:24:12;;;;;;;22.13;12.95;;;;;;;4.05;33.21;100089.00;2169447;89;25816;-84
2021/12/27 15:27:45;;;;;;;23.27;13.48;;;;;;;3.94;33.40;100089.81;2058156;94;25894;-82
2021/12/27 15:31:09;;;;;;;24.63;12.53;;;;;;;3.79;33.49;100088.31;2043244;94;25897;-83
2021/12/27 15:34:49;;;;;;;20.70;11.78;;;;;;;3.71;33.66;100087.09;2097561;92;25820;-84
2021/12/27 15:38:29;;;;;;;52.05;13.00;;;;;;;3.62;33.81;100087.95;2108929;92;25767;-82
2021/12/27 15:41:57;;;;;;;24.60;13.22;;;;;;;3.64;34.32;100086.30;2139236;90;25868;-84
2021/12/27 15:45:38;;;;;;;;;;;;;;;;;;;;;
2021/12/27 15:49:13;;;;;;;19.27;12.63;;;;;;;3.53;35.14;100078.48;2152352;89;25907;-83
2021/12/27 15:53:12;;;;;;;25.17;13.53;;;;;;;3.63;35.19;100095.27;2102524;92;26028;-84
2021/12/27 16:00:40;;;;;;;23.15;13.13;;;;;;;3.55;34.88;100088.06;2068339;93;25876;-83
2021/12/27 16:04:22;;;;;;;;;;;;;;;;;;;;;
2021/12/27 16:07:59;;;;;;;27.73;14.55;;;;;;;3.41;34.75;100094.27;2090125;92;25749;-84
2021/12/27 16:11:33;;;;;;;22.62;13.80;;;;;;;3.30;34.71;100087.30;2085072;92;25965;-83
2021/12/27 16:15:45;;;;;;;28.80;15.10;;;;;;;3.20;34.77;100087.66;2012154;96;25801;-86
2021/12/27 16:19:21;;;;;;;25.62;14.60;;;;;;;3.11;34.77;100078.64;2003916;97;25878;-84
2021/12/27 16:27:26;;;;;;;;;;;;;;;;;;;;;
2021/12/27 16:31:04;;;;;;;26.55;14.45;;;;;;;2.97;34.89;100086.95;1991729;96;26119;-87
2021/12/27 16:34:39;;;;;;;27.25;14.03;;;;;;;2.89;34.99;100077.98;1998693;97;25845;-85
2021/12/27 16:38:41;;;;;;;31.33;15.32;;;;;;;2.81;35.02;100082.76;1991706;97;26010;-84
2021/12/27 16:42:11;;;;;;;29.80;14.60;;;;;;;2.74;35.12;100069.98;1998663;96;25771;-84
2021/12/27 16:45:37;;;;;;;29.92;15.05;;;;;;;2.71;35.19;100077.96;2004843;96;25986;-84
2021/12/27 16:49:25;;;;;;;26.65;14.53;;;;;;;2.65;35.29;100079.81;1960339;98;25794;-82
2021/12/27 16:52:56;;;;;;;29.00;15.38;;;;;;;2.57;35.34;100083.30;1869835;101;26263;-85
2021/12/27 16:56:43;;;;;;;29.60;14.90;;;;;;;2.46;35.46;100076.70;1881092;100;25812;-84
2021/12/27 16:59:58;;;;;;;33.20;16.07;;;;;;;2.36;35.50;100086.95;1962491;98;25925;-83
2021/12/27 17:03:37;;;;;;;;;;;;;;;;;;;;;
2021/12/27 17:06:58;;;;;;;33.85;16.35;;;;;;;2.20;35.66;100076.67;1970916;98;25815;-84
2021/12/27 17:10:25;;;;;;;30.05;16.23;;;;;;;2.13;35.78;100081.02;1980577;97;25717;-85
2021/12/27 17:14:02;;;;;;;29.52;15.25;;;;;;;2.07;35.86;100076.43;2015013;95;25643;-84
2021/12/27 17:17:32;;;;;;;28.87;16.20;;;;;;;2.00;35.96;100088.89;2006641;96;25951;-84
2021/12/27 17:21:01;;;;;;;31.55;15.88;;;;;;;1.93;36.04;100088.97;2048429;94;25802;-83
2021/12/27 17:24:38;;;;;;;33.50;15.32;;;;;;;1.84;36.15;100089.34;2014281;95;25836;-83
2021/12/27 17:28:06;;;;;;;32.05;15.83;;;;;;;1.80;36.25;100099.39;2007773;96;25926;-86
2021/12/27 17:31:32;;;;;;;26.07;15.88;;;;;;;1.70;36.29;100088.13;2012603;96;25883;-83
2021/12/27 17:35:01;;;;;;;28.57;16.17;;;;;;;1.64;36.36;100085.70;1990411;97;25776;-84
2021/12/27 17:38:43;;;;;;;;;;;;;;;;;;;;;
2021/12/27 17:42:05;;;;;;;33.45;15.35;;;;;;;1.55;36.64;100092.02;1943522;98;25846;-82
2021/12/27 17:45:34;;;;;;;21.90;10.80;;;;;;;1.51;36.75;100100.36;1957384;97;26163;-83
2021/12/27 17:49:01;;;;;;;22.90;12.47;;;;;;;1.72;43.00;100104.13;2123968;87;25674;-83
2021/12/27 17:52:24;;;;;;;28.30;12.88;;;;;;;2.33;41.48;100101.34;2242287;87;25737;-83
2021/12/27 17:56:04;;;;;;;;;;;;;;;;;;;;;
2021/12/27 17:59:31;;;;;;;23.70;12.98;;;;;;;2.51;41.11;100098.83;2155621;85;26529;-81
2021/12/27 18:03:12;;;;;;;24.25;13.35;;;;;;;2.52;41.02;100091.58;2123102;88;25747;-84
2021/12/27 18:06:44;;;;;;;23.83;13.80;;;;;;;2.52;40.95;100087.72;2223530;86;25807;-80
2021/12/27 18:10:59;;;;;;;31.93;14.85;;;;;;;2.49;40.73;100093.99;2226107;88;25836;-88
2021/12/27 18:15:06;;;;;;;23.87;14.45;;;;;;;2.50;40.56;100092.80;2173162;89;25811;-84
2021/12/27 18:18:32;;;;;;;21.75;13.18;;;;;;;2.52;40.29;100098.02;2191391;89;25839;-86
2021/12/27 18:21:55;;;;;;;27.35;13.83;;;;;;;2.52;40.10;100095.44;2200700;87;26408;-87
2021/12/27 18:25:36;;;;;;;28.75;14.70;;;;;;;2.51;39.94;100092.39;2162304;89;25947;-88
2021/12/27 18:29:19;;;;;;;23.55;14.35;;;;;;;2.51;39.79;100085.55;2203971;89;25731;-81
2021/12/27 18:32:48;;;;;;;27.32;14.70;;;;;;;2.53;39.67;100085.24;2265219;86;25746;-88
2021/12/27 18:36:37;;;;;;;26.40;14.63;;;;;;;2.54;39.53;100088.28;2279867;85;25316;-88
2021/12/27 18:40:17;;;;;;;27.65;13.80;;;;;;;2.55;39.46;100091.73;2244154;86;25653;-85
2021/12/27 18:43:45;;;;;;;32.05;14.83;;;;;;;2.54;39.33;100084.42;2138980;90;25864;-82
2021/12/27 18:47:43;;;;;;;30.92;14.43;;;;;;;2.55;39.21;100081.45;2175718;88;25737;-91
2021/12/27 18:51:12;;;;;;;29.80;14.90;;;;;;;2.54;39.15;100085.72;2088134;92;25878;-83
2021/12/27 18:55:02;;;;;;;31.52;13.95;;;;;;;2.55;39.06;100082.33;2082267;92;25917;-92
2021/12/27 18:59:00;;;;;;;;;;;;;;;;;;;;;
2021/12/27 19:03:13;;;;;;;30.62;15.78;;;;;;;2.55;38.84;100075.02;2020456;96;25522;-90
2021/12/27 19:07:12;;;;;;;;;;;;;;;;;;;;;
2021/12/27 19:10:52;;;;;;;25.65;15.32;;;;;;;2.52;38.74;100069.70;1850408;106;25555;-91
2021/12/27 19:15:33;;;;;;;27.77;16.42;;;;;;;2.49;38.71;100064.00;1848789;105;25985;-92
2021/12/27 19:23:30;;;;;;;32.95;16.55;;;;;;;2.42;38.56;100061.92;1938027;99;25736;-93
2021/12/27 19:31:03;;;;;;;29.87;15.75;;;;;;;2.35;38.47;100062.02;1840151;104;25799;-85
2021/12/27 19:35:35;;;;;;;;;;;;;;;;;;;;;
2021/12/27 19:39:12;;;;;;;;;;;;;;;;;;;;;
2021/12/27 19:42:57;;;;;;;25.55;15.28;;;;;;;2.29;38.42;100063.38;1830875;105;26298;-89
2021/12/27 19:46:40;;;;;;;28.70;15.10;;;;;;;2.28;38.41;100056.48;1872222;105;25986;-85
2021/12/27 19:55:28;;;;;;;26.40;14.98;;;;;;;2.29;38.37;100057.83;1755605;109;26118;-86
2021/12/27 19:59:42;;;;;;;26.95;14.13;;;;;;;2.29;38.36;100050.52;1768693;110;25837;-89
2021/12/27 20:11:18;;;;;;;30.43;14.87;;;;;;;2.28;38.33;100052.22;1810344;107;26462;-86
2021/12/27 20:14:49;;;;;;;31.52;15.63;;;;;;;2.26;38.30;100044.84;1817513;99;26013;-85
2021/12/27 20:18:23;;;;;;;29.32;15.83;;;;;;;2.27;38.30;100051.75;1816401;106;26268;-81
2021/12/27 20:21:55;;;;;;;25.32;16.37;;;;;;;2.25;38.29;100051.18;1837525;105;25940;-80
2021/12/27 20:25:26;;;;;;;27.42;14.53;;;;;;;2.23;38.27;100044.69;1845750;106;26533;-85
2021/12/27 20:29:35;;;;;;;;;;;;;;;;;;;;;
2021/12/27 20:33:09;;;;;;;28.50;14.68;;;;;;;2.21;38.24;100037.28;1852089;105;26037;-86
2021/12/27 20:36:40;;;;;;;36.40;16.55;;;;;;;2.21;38.28;100034.70;1851017;104;26448;-88
2021/12/27 20:40:12;;;;;;;27.80;15.20;;;;;;;2.21;38.27;100041.14;1877532;101;26043;-86
2021/12/27 20:43:41;;;;;;;29.30;14.80;;;;;;;2.20;38.30;100042.36;1931023;99;26209;-80
2021/12/27 20:47:12;;;;;;;28.87;15.05;;;;;;;2.20;38.31;100039.38;1964788;99;26138;-79
2021/12/27 20:50:49;;;;;;;29.20;15.38;;;;;;;2.20;38.31;100034.24;1893797;102;26066;-84
2021/12/27 20:54:24;;;;;;;26.02;14.63;;;;;;;2.19;38.30;100042.73;1932650;100;26046;-82
2021/12/27 20:58:01;;;;;;;30.45;16.40;;;;;;;2.19;38.32;100041.86;1933598;101;25841;-80
2021/12/27 21:01:22;;;;;;;32.60;15.38;;;;;;;2.19;38.28;100037.59;1937451;101;25824;-84
2021/12/27 21:05:01;;;;;;;26.95;14.53;;;;;;;2.17;38.31;100048.22;1966070;97;25763;-82
2021/12/27 21:08:58;;;;;;;31.93;15.35;;;;;;;2.17;38.29;100048.22;2015620;94;25865;-84
2021/12/27 21:12:30;;;;;;;30.50;14.83;;;;;;;2.17;38.30;100043.48;2001213;97;26364;-80
2021/12/27 21:16:15;;;;;;;29.30;15.15;;;;;;;2.17;38.31;100035.77;2025815;91;25913;-82
2021/12/27 21:19:38;;;;;;;37.20;16.95;;;;;;;2.16;38.28;100041.33;2041291;94;25849;-81
2021/12/27 21:23:07;;;;;;;26.40;15.43;;;;;;;2.16;38.29;100036.18;2050834;94;25444;-79
2021/12/27 21:26:57;;;;;;;29.50;15.32;;;;;;;2.17;38.27;100048.22;2075257;93;26271;-82
2021/12/27 21:30:29;;;;;;;30.10;15.48;;;;;;;2.15;38.23;100033.52;2041827;94;25683;-83
2021/12/27 21:33:53;;;;;;;33.33;15.65;;;;;;;2.14;38.23;100035.20;2026554;95;26185;-83
2021/12/27 21:37:35;;;;;;;34.60;16.67;;;;;;;2.15;38.24;100032.23;2027485;95;25848;-84
2021/12/27 21:41:13;;;;;;;32.65;16.52;;;;;;;2.15;38.22;100034.39;2123494;90;26439;-82
2021/12/27 21:44:49;;;;;;;28.35;15.75;;;;;;;2.17;38.24;100034.48;2141241;90;25856;-83
2021/12/27 21:48:18;;;;;;;33.05;17.92;;;;;;;2.17;38.23;100043.08;2180271;87;32405;-79
2021/12/27 21:51:48;;;;;;;27.22;15.20;;;;;;;2.18;38.25;100039.69;2176956;89;25665;-81
2021/12/27 21:55:46;;;;;;;;;;;;;;;2.18;38.20;100028.53;2215004;87;25934;-83
2021/12/27 21:59:40;;;;;;;;;;;;;;;;;;;;;
2021/12/27 22:03:07;;;;;;;35.10;15.85;;;;;;;2.18;38.24;100022.09;2366445;83;25691;-84
2021/12/27 22:06:40;;;;;;;34.20;16.62;;;;;;;2.20;38.30;100016.64;2374486;83;26229;-87
2021/12/27 22:10:24;;;;;;;28.15;15.55;;;;;;;2.20;38.33;100009.80;2315870;84;25673;-84
2021/12/27 22:14:13;;;;;;;31.35;15.20;;;;;;;2.22;38.34;100008.17;2326854;83;25301;-84
2021/12/27 22:17:53;;;;;;;30.95;15.60;;;;;;;2.23;38.35;100002.63;2331902;83;25797;-83
2021/12/27 22:21:20;;;;;;;23.77;15.20;;;;;;;2.24;38.38;100015.58;2305985;83;26072;-83
2021/12/27 22:24:59;;;;;;;31.73;16.52;;;;;;;2.26;38.36;100006.27;2326334;83;25879;-85
2021/12/27 22:28:33;;;;;;;30.20;14.85;;;;;;;2.26;38.38;99995.06;2335939;83;25827;-83
2021/12/27 22:32:10;;;;;;;30.37;14.93;;;;;;;2.27;38.41;99993.87;2328806;83;25699;-89
2021/12/27 22:35:53;;;;;;;30.30;16.48;;;;;;;2.28;38.43;99986.63;2328639;83;25688;-82
2021/12/27 22:39:42;;;;;;;31.35;16.55;;;;;;;2.29;38.44;99993.53;2287688;84;25909;-90
2021/12/27 22:43:14;;;;;;;30.52;16.37;;;;;;;2.29;38.47;99996.10;2269123;85;25740;-82
2021/12/27 22:46:51;;;;;;;31.62;16.07;;;;;;;2.29;38.42;99989.67;2268227;85;25964;-84
2021/12/27 22:50:41;;;;;;;32.08;16.45;;;;;;;2.29;38.38;99990.95;2273654;85;25841;-84
2021/12/27 22:54:12;;;;;;;31.55;16.25;;;;;;;2.28;38.34;99989.20;2273611;85;25803;-84
2021/12/27 22:57:54;;;;;;;29.32;16.20;;;;;;;2.28;38.35;99981.89;2274431;85;25804;-83
2021/12/27 23:01:26;;;;;;;30.23;15.85;;;;;;;2.28;38.33;99975.05;2292974;85;25788;-83
2021/12/27 23:05:07;;;;;;;32.13;17.32;;;;;;;2.27;38.31;99978.45;2296037;84;25747;-83
2021/12/27 23:08:34;;;;;;;31.23;16.50;;;;;;;2.26;38.29;99968.06;2213733;88;25784;-81
2021/12/27 23:12:19;;;;;;;33.48;17.50;;;;;;;2.25;38.31;99960.75;2213325;88;26184;-83
2021/12/27 23:15:45;;;;;;;32.17;15.80;;;;;;;2.23;38.32;99955.95;2216865;87;25810;-87
2021/12/27 23:19:21;;;;;;;34.13;15.35;;;;;;;2.23;38.31;99959.81;2218765;87;25725;-83
2021/12/27 23:22:52;;;;;;;26.87;15.00;;;;;;;2.24;38.27;99961.57;2214635;85;25668;-82
2021/12/27 23:30:21;;;;;;;32.95;16.37;;;;;;;2.22;38.29;99954.17;2268948;85;25764;-82
2021/12/27 23:33:48;;;;;;;26.97;14.93;;;;;;;2.24;38.32;99967.12;2248596;85;25787;-82
2021/12/27 23:37:24;;;;;;;29.50;15.63;;;;;;;2.23;38.32;99967.53;2229350;87;25628;-81
2021/12/27 23:40:49;;;;;;;34.60;16.48;;;;;;;2.23;38.35;99969.19;2230561;87;25764;-82
2021/12/27 23:44:14;;;;;;;31.37;16.20;;;;;;;2.23;38.37;99972.67;2224151;88;25743;-81
2021/12/27 23:47:42;;;;;;;26.60;14.87;;;;;;;2.24;38.36;99967.12;2236579;86;25851;-83
2021/12/27 23:51:23;;;;;;;29.25;16.05;;;;;;;2.23;38.36;99968.81;2251384;86;25715;-82
2021/12/27 23:55:05;;;;;;;30.45;15.75;;;;;;;2.25;38.35;99956.90;2261894;85;25841;-82
2021/12/27 23:58:44;;;;;;;32.78;16.77;;;;;;;2.23;38.34;99946.05;2276122;86;25695;-82
